createdAt,value
2019-03-31T00:01:52.812Z,25.77
2019-03-31T00:03:57.944Z,27.17
2019-03-31T00:06:05.419Z,27.57
2019-03-31T00:08:10.629Z,29.23
2019-03-31T00:10:15.792Z,24.83
2019-03-31T00:12:21.156Z,28.97
2019-03-31T00:14:29.060Z,26.87
2019-03-31T00:16:35.251Z,23.53
2019-03-31T00:18:40.252Z,40.07
2019-03-31T00:20:45.195Z,26.00
2019-03-31T00:22:51.062Z,23.17
2019-03-31T00:24:57.214Z,33.77
2019-03-31T00:27:02.171Z,25.57
2019-03-31T00:29:07.723Z,30.77
2019-03-31T00:31:21.998Z,28.90
2019-03-31T00:33:25.036Z,28.90
2019-03-31T00:35:31.921Z,23.87
2019-03-31T00:37:38.288Z,22.10
2019-03-31T00:39:43.274Z,23.93
2019-03-31T00:41:51.885Z,29.57
2019-03-31T00:43:57.465Z,26.93
2019-03-31T00:46:02.495Z,23.57
2019-03-31T00:48:07.488Z,26.70
2019-03-31T00:50:12.489Z,25.43
2019-03-31T00:52:17.396Z,23.13
2019-03-31T00:54:22.413Z,23.30
2019-03-31T00:56:27.534Z,24.73
2019-03-31T00:58:33.382Z,22.77
2019-03-31T01:01:10.386Z,23.00
2019-03-31T01:03:15.776Z,29.63
2019-03-31T01:05:21.417Z,23.37
2019-03-31T01:07:27.642Z,22.23
2019-03-31T01:09:34.250Z,25.90
2019-03-31T01:11:39.194Z,25.80
2019-03-31T01:13:44.810Z,24.70
2019-03-31T01:15:50.042Z,27.10
2019-03-31T01:17:55.403Z,25.43
2019-03-31T01:20:00.452Z,25.10
2019-03-31T01:22:05.667Z,29.83
2019-03-31T01:24:10.982Z,25.43
2019-03-31T01:26:19.919Z,24.93
2019-03-31T01:28:24.954Z,29.23
2019-03-31T01:30:30.175Z,26.77
2019-03-31T01:32:35.207Z,27.87
2019-03-31T01:34:40.727Z,35.30
2019-03-31T01:36:45.665Z,31.63
2019-03-31T01:38:51.632Z,34.57
2019-03-31T01:40:56.722Z,28.67
2019-03-31T01:43:01.659Z,27.90
2019-03-31T01:45:07.242Z,30.00
2019-03-31T01:47:12.411Z,33.53
2019-03-31T01:49:17.411Z,30.97
2019-03-31T01:51:22.446Z,37.03
2019-03-31T01:53:27.782Z,27.83
2019-03-31T01:55:32.842Z,32.93
2019-03-31T01:57:37.977Z,30.70
2019-03-31T01:59:43.566Z,31.37
2019-03-31T02:01:49.093Z,31.23
2019-03-31T02:03:54.484Z,32.03
2019-03-31T02:05:59.451Z,33.00
2019-03-31T02:08:04.546Z,34.17
2019-03-31T02:10:09.583Z,33.30
2019-03-31T02:12:14.895Z,36.00
2019-03-31T02:14:22.671Z,38.90
2019-03-31T02:16:27.750Z,38.47
2019-03-31T02:18:32.707Z,36.83
2019-03-31T02:20:37.688Z,37.13
2019-03-31T02:22:42.682Z,40.47
2019-03-31T02:24:47.987Z,48.07
2019-03-31T02:26:53.445Z,38.20
2019-03-31T02:28:59.043Z,44.07
2019-03-31T02:31:04.683Z,39.17
2019-03-31T02:33:09.810Z,48.30
2019-03-31T02:35:15.846Z,40.03
2019-03-31T02:37:20.779Z,46.13
2019-03-31T02:39:27.118Z,41.83
2019-03-31T02:41:32.214Z,45.27
2019-03-31T02:43:37.590Z,43.63
2019-03-31T02:45:42.577Z,48.77
2019-03-31T02:47:47.577Z,44.03
2019-03-31T02:49:52.631Z,43.60
2019-03-31T02:51:57.947Z,45.83
2019-03-31T02:54:03.441Z,48.77
2019-03-31T02:56:09.014Z,45.77
2019-03-31T02:58:14.443Z,42.90
2019-03-31T03:00:19.897Z,46.93
2019-03-31T03:02:41.421Z,46.40
2019-03-31T03:04:35.805Z,42.97
2019-03-31T03:06:42.652Z,46.30
2019-03-31T03:08:50.238Z,54.60
2019-03-31T03:10:57.049Z,49.40
2019-03-31T03:13:03.800Z,46.97
2019-03-31T03:15:08.863Z,55.40
2019-03-31T03:17:13.843Z,49.73
2019-03-31T03:19:19.283Z,55.63
2019-03-31T03:21:25.059Z,49.53
2019-03-31T03:23:30.732Z,45.73
2019-03-31T03:25:35.806Z,59.03
2019-03-31T03:27:41.967Z,45.00
2019-03-31T03:29:47.140Z,52.77
2019-03-31T03:31:52.328Z,45.87
2019-03-31T03:33:57.382Z,53.17
2019-03-31T03:36:02.733Z,51.40
2019-03-31T03:38:08.373Z,57.70
2019-03-31T03:40:14.226Z,45.03
2019-03-31T03:42:19.192Z,66.37
2019-03-31T03:44:24.432Z,50.67
2019-03-31T03:46:29.490Z,51.67
2019-03-31T03:48:34.936Z,74.10
2019-03-31T03:50:39.921Z,55.73
2019-03-31T03:52:45.295Z,63.13
2019-03-31T03:54:50.304Z,71.87
2019-03-31T03:56:55.244Z,67.73
2019-03-31T03:59:00.522Z,71.63
2019-03-31T04:01:12.840Z,62.50
2019-03-31T04:03:30.225Z,66.10
2019-03-31T04:05:24.805Z,63.17
2019-03-31T04:07:29.732Z,81.73
2019-03-31T04:09:35.536Z,73.27
2019-03-31T04:11:40.512Z,64.90
2019-03-31T04:13:45.533Z,72.90
2019-03-31T04:15:53.001Z,67.33
2019-03-31T04:17:57.945Z,72.50
2019-03-31T04:20:02.873Z,79.17
2019-03-31T04:22:08.167Z,75.17
2019-03-31T04:24:13.103Z,77.50
2019-03-31T04:26:18.504Z,81.20
2019-03-31T04:28:23.458Z,67.30
2019-03-31T04:30:28.404Z,83.50
2019-03-31T04:32:33.353Z,71.97
2019-03-31T04:34:38.614Z,89.03
2019-03-31T04:36:43.895Z,79.13
2019-03-31T04:38:49.949Z,84.80
2019-03-31T04:40:55.883Z,78.73
2019-03-31T04:43:01.218Z,93.57
2019-03-31T04:45:06.436Z,87.00
2019-03-31T04:47:11.598Z,74.87
2019-03-31T04:49:16.936Z,77.47
2019-03-31T04:51:21.832Z,75.40
2019-03-31T04:53:26.753Z,85.27
2019-03-31T04:55:31.611Z,84.67
2019-03-31T04:57:36.760Z,84.43
2019-03-31T04:59:41.798Z,78.20
2019-03-31T05:01:46.851Z,91.53
2019-03-31T05:04:03.914Z,84.63
2019-03-31T05:05:58.840Z,88.10
2019-03-31T05:08:03.838Z,93.33
2019-03-31T05:10:09.162Z,89.13
2019-03-31T05:12:16.782Z,85.40
2019-03-31T05:14:20.744Z,98.53
2019-03-31T05:16:25.632Z,95.07
2019-03-31T05:18:30.591Z,89.20
2019-03-31T05:20:35.599Z,68.47
2019-03-31T05:22:40.507Z,88.70
2019-03-31T05:24:45.951Z,83.30
2019-03-31T05:26:51.264Z,78.33
2019-03-31T05:28:56.624Z,89.47
2019-03-31T05:31:01.634Z,83.07
2019-03-31T05:33:07.398Z,92.73
2019-03-31T05:35:12.441Z,92.27
2019-03-31T05:37:19.461Z,85.20
2019-03-31T05:39:24.785Z,83.70
2019-03-31T05:41:30.695Z,80.93
2019-03-31T05:43:35.615Z,83.10
2019-03-31T05:45:40.569Z,95.53
2019-03-31T05:47:45.617Z,84.33
2019-03-31T05:49:50.742Z,86.27
2019-03-31T05:51:55.856Z,91.30
2019-03-31T05:54:01.319Z,90.10
2019-03-31T05:56:06.232Z,79.60
2019-03-31T05:58:11.160Z,98.07
2019-03-31T06:00:21.445Z,91.93
2019-03-31T06:02:26.563Z,91.63
2019-03-31T06:04:33.395Z,88.07
2019-03-31T06:06:38.649Z,92.77
2019-03-31T06:08:44.027Z,93.80
2019-03-31T06:11:13.122Z,88.50
2019-03-31T06:16:19.456Z,89.97
2019-03-31T06:18:25.066Z,115.93
2019-03-31T06:20:30.025Z,98.07
2019-03-31T06:22:34.994Z,93.83
2019-03-31T06:24:40.109Z,95.70
2019-03-31T06:26:45.542Z,96.10
2019-03-31T06:28:52.276Z,88.53
2019-03-31T06:30:57.372Z,79.70
2019-03-31T06:33:02.696Z,95.70
2019-03-31T06:35:07.696Z,94.20
2019-03-31T06:37:12.795Z,91.47
2019-03-31T06:39:17.996Z,96.10
2019-03-31T06:41:23.049Z,105.63
2019-03-31T06:43:31.086Z,82.27
2019-03-31T06:45:36.241Z,95.00
2019-03-31T06:47:43.950Z,92.00
2019-03-31T06:49:49.300Z,85.80
2019-03-31T06:51:54.561Z,96.00
2019-03-31T06:53:59.548Z,96.83
2019-03-31T06:56:05.499Z,95.77
2019-03-31T06:58:10.645Z,80.13
2019-03-31T07:00:19.380Z,93.17
2019-03-31T07:02:24.448Z,86.17
2019-03-31T07:04:46.289Z,86.20
2019-03-31T07:06:51.301Z,74.13
2019-03-31T07:08:56.776Z,91.80
2019-03-31T07:13:10.724Z,80.67
2019-03-31T07:15:17.457Z,91.87
2019-03-31T07:17:22.627Z,104.53
2019-03-31T07:19:29.090Z,88.17
2019-03-31T07:21:34.083Z,68.30
2019-03-31T07:23:39.308Z,84.37
2019-03-31T07:25:46.139Z,73.10
2019-03-31T07:27:51.162Z,74.17
2019-03-31T07:29:56.142Z,50.30
2019-03-31T07:32:03.260Z,83.37
2019-03-31T07:34:08.241Z,77.97
2019-03-31T07:36:13.326Z,73.43
2019-03-31T07:38:18.649Z,77.07
2019-03-31T07:40:24.211Z,86.57
2019-03-31T07:42:29.205Z,63.03
2019-03-31T07:44:35.288Z,84.67
2019-03-31T07:46:40.397Z,72.87
2019-03-31T07:48:45.368Z,83.27
2019-03-31T07:50:50.592Z,96.57
2019-03-31T07:52:56.628Z,72.80
2019-03-31T07:55:01.696Z,74.33
2019-03-31T07:57:07.421Z,72.30
2019-03-31T07:59:12.783Z,71.40
2019-03-31T08:01:18.782Z,83.83
2019-03-31T08:03:24.429Z,65.80
2019-03-31T08:05:33.494Z,66.93
2019-03-31T08:07:37.144Z,77.37
2019-03-31T08:09:42.116Z,76.20
2019-03-31T08:11:47.432Z,67.17
2019-03-31T08:13:55.156Z,65.33
2019-03-31T08:16:01.365Z,71.93
2019-03-31T08:18:06.339Z,65.20
2019-03-31T08:20:13.812Z,75.83
2019-03-31T08:22:18.834Z,53.73
2019-03-31T08:24:26.321Z,57.30
2019-03-31T08:26:31.396Z,52.60
2019-03-31T08:28:39.292Z,80.83
2019-03-31T08:30:44.287Z,63.97
2019-03-31T08:32:49.366Z,50.90
2019-03-31T08:34:54.288Z,75.50
2019-03-31T08:37:04.786Z,70.47
2019-03-31T08:39:12.906Z,66.40
2019-03-31T08:41:20.498Z,67.67
2019-03-31T08:43:26.097Z,63.50
2019-03-31T08:45:32.466Z,67.07
2019-03-31T08:47:37.914Z,59.80
2019-03-31T08:49:43.003Z,64.17
2019-03-31T08:51:48.296Z,61.47
2019-03-31T08:53:54.038Z,62.53
2019-03-31T08:55:59.696Z,76.97
2019-03-31T08:58:05.989Z,73.70
2019-03-31T09:00:18.257Z,53.50
2019-03-31T09:02:34.882Z,61.77
2019-03-31T09:04:40.677Z,70.03
2019-03-31T09:06:47.601Z,63.67
2019-03-31T09:08:53.020Z,75.70
2019-03-31T09:11:01.131Z,72.37
2019-03-31T09:13:06.152Z,72.57
2019-03-31T09:15:12.714Z,58.20
2019-03-31T09:17:18.350Z,65.97
2019-03-31T09:19:24.825Z,67.37
2019-03-31T09:21:32.301Z,60.27
2019-03-31T09:23:37.709Z,60.17
2019-03-31T09:25:47.614Z,61.67
2019-03-31T09:27:53.970Z,72.93
2019-03-31T09:29:59.532Z,55.30
2019-03-31T09:32:04.636Z,69.03
2019-03-31T09:34:10.673Z,50.80
2019-03-31T09:36:30.761Z,63.57
2019-03-31T09:38:35.693Z,63.37
2019-03-31T09:40:41.549Z,63.13
2019-03-31T09:42:46.707Z,59.67
2019-03-31T09:44:51.947Z,64.87
2019-03-31T09:46:58.322Z,61.17
2019-03-31T09:49:03.224Z,66.50
2019-03-31T09:51:08.356Z,64.50
2019-03-31T09:53:13.659Z,55.13
2019-03-31T09:55:18.615Z,53.97
2019-03-31T09:57:23.701Z,60.67
2019-03-31T09:59:31.069Z,62.77
2019-03-31T10:02:44.520Z,58.53
2019-03-31T10:05:31.206Z,55.93
2019-03-31T10:07:37.705Z,54.30
2019-03-31T10:09:43.607Z,52.30
2019-03-31T10:11:49.909Z,46.43
2019-03-31T10:15:59.118Z,45.70
2019-03-31T10:18:04.341Z,48.83
2019-03-31T10:20:09.650Z,41.57
2019-03-31T10:22:14.609Z,44.37
2019-03-31T10:24:19.755Z,42.57
2019-03-31T10:26:31.694Z,39.40
2019-03-31T10:28:32.157Z,39.60
2019-03-31T10:30:37.750Z,49.23
2019-03-31T10:32:43.018Z,37.17
2019-03-31T10:34:48.912Z,46.27
2019-03-31T10:36:53.869Z,37.07
2019-03-31T10:38:58.874Z,44.80
2019-03-31T10:41:04.044Z,35.80
2019-03-31T10:43:09.176Z,36.10
2019-03-31T10:45:14.283Z,31.43
2019-03-31T10:47:20.290Z,43.07
2019-03-31T10:49:25.222Z,47.30
2019-03-31T10:51:30.130Z,36.13
2019-03-31T10:53:35.081Z,39.07
2019-03-31T10:55:40.432Z,37.00
2019-03-31T10:57:45.529Z,36.70
2019-03-31T10:59:50.468Z,43.80
2019-03-31T11:01:55.399Z,36.20
2019-03-31T11:04:00.721Z,44.70
2019-03-31T11:06:06.048Z,28.17
2019-03-31T11:08:10.972Z,44.30
2019-03-31T11:10:16.079Z,33.60
2019-03-31T11:12:21.513Z,33.57
2019-03-31T11:14:26.593Z,36.00
2019-03-31T11:16:33.185Z,41.03
2019-03-31T11:18:38.402Z,36.07
2019-03-31T11:20:43.447Z,34.67
2019-03-31T11:22:53.334Z,32.93
2019-03-31T11:24:59.021Z,33.90
2019-03-31T11:27:03.980Z,28.63
2019-03-31T11:29:11.300Z,32.20
2019-03-31T11:31:17.936Z,29.13
2019-03-31T11:33:23.167Z,30.50
2019-03-31T11:35:28.421Z,28.80
2019-03-31T11:37:33.511Z,32.50
2019-03-31T11:39:38.451Z,34.70
2019-03-31T11:41:44.225Z,31.60
2019-03-31T11:43:49.292Z,31.53
2019-03-31T11:45:52.283Z,31.27
2019-03-31T11:47:58.396Z,25.10
2019-03-31T11:50:03.511Z,29.23
2019-03-31T11:52:08.766Z,26.97
2019-03-31T11:54:13.736Z,27.37
2019-03-31T11:56:18.942Z,33.50
2019-03-31T11:58:23.871Z,24.07
2019-03-31T12:00:31.291Z,30.20
2019-03-31T12:02:37.238Z,28.57
2019-03-31T12:04:42.140Z,30.80
2019-03-31T12:06:47.408Z,30.20
2019-03-31T12:08:52.847Z,24.70
2019-03-31T12:10:58.795Z,24.00
2019-03-31T12:13:03.824Z,27.40
2019-03-31T12:15:08.996Z,22.50
2019-03-31T12:17:14.129Z,23.83
2019-03-31T12:19:19.212Z,29.57
2019-03-31T12:21:24.187Z,24.10
2019-03-31T12:23:29.182Z,22.57
2019-03-31T12:25:34.168Z,23.87
2019-03-31T12:27:39.222Z,24.47
2019-03-31T12:29:44.529Z,28.10
2019-03-31T12:31:50.012Z,28.03
2019-03-31T12:33:55.131Z,29.87
2019-03-31T12:36:00.262Z,23.93
2019-03-31T12:38:06.227Z,24.67
2019-03-31T12:40:16.757Z,25.63
2019-03-31T12:42:22.511Z,22.27
2019-03-31T12:44:27.498Z,25.53
2019-03-31T12:46:34.477Z,18.30
2019-03-31T12:48:40.322Z,21.70
2019-03-31T12:50:47.679Z,17.37
2019-03-31T12:52:52.775Z,26.57
2019-03-31T12:54:57.714Z,30.30
2019-03-31T12:57:03.769Z,24.03
2019-03-31T12:59:08.748Z,27.73
2019-03-31T13:01:13.788Z,26.67
2019-03-31T13:03:19.812Z,31.40
2019-03-31T13:05:24.780Z,19.93
2019-03-31T13:07:29.693Z,20.20
2019-03-31T13:09:36.901Z,24.40
2019-03-31T13:11:41.877Z,21.50
2019-03-31T13:13:46.860Z,16.37
2019-03-31T13:15:51.831Z,19.80
2019-03-31T13:17:56.857Z,20.80
2019-03-31T13:20:01.851Z,17.53
2019-03-31T13:22:06.843Z,20.37
2019-03-31T13:24:24.661Z,15.37
2019-03-31T13:26:29.646Z,21.03
2019-03-31T13:28:34.828Z,17.17
2019-03-31T13:30:39.788Z,21.73
2019-03-31T13:32:44.803Z,22.93
2019-03-31T13:34:50.064Z,15.90
2019-03-31T13:36:54.980Z,17.20
2019-03-31T13:38:59.937Z,27.30
2019-03-31T13:41:05.534Z,16.30
2019-03-31T13:43:11.581Z,27.77
2019-03-31T13:45:16.722Z,17.27
2019-03-31T13:47:21.784Z,12.77
2019-03-31T13:49:27.689Z,15.17
2019-03-31T13:51:32.730Z,13.70
2019-03-31T13:53:37.649Z,24.93
2019-03-31T13:55:43.067Z,15.53
2019-03-31T13:57:49.705Z,17.90
2019-03-31T13:59:55.065Z,12.67
2019-03-31T14:02:00.566Z,13.33
2019-03-31T14:04:07.144Z,23.33
2019-03-31T14:06:12.083Z,24.27
2019-03-31T14:08:25.736Z,16.40
2019-03-31T14:10:24.403Z,15.90
2019-03-31T14:12:29.704Z,15.77
2019-03-31T14:14:34.750Z,17.90
2019-03-31T14:16:39.780Z,16.70
2019-03-31T14:18:44.912Z,21.80
2019-03-31T14:20:50.272Z,14.70
2019-03-31T14:22:55.253Z,14.57
2019-03-31T14:25:01.101Z,13.23
2019-03-31T14:27:06.334Z,11.67
2019-03-31T14:29:12.727Z,15.80
2019-03-31T14:31:19.804Z,14.90
2019-03-31T14:33:26.254Z,12.00
2019-03-31T14:35:31.284Z,16.47
2019-03-31T14:37:36.675Z,10.27
2019-03-31T14:39:41.739Z,16.03
2019-03-31T14:41:47.162Z,13.60
2019-03-31T14:43:53.872Z,14.57
2019-03-31T14:45:59.029Z,17.47
2019-03-31T14:48:05.556Z,13.90
2019-03-31T14:50:15.740Z,10.23
2019-03-31T14:52:27.281Z,12.60
2019-03-31T14:54:28.085Z,14.10
2019-03-31T14:56:33.118Z,13.53
2019-03-31T14:58:38.106Z,12.40
2019-03-31T15:00:43.502Z,15.53
2019-03-31T15:02:48.932Z,14.10
2019-03-31T15:04:54.218Z,11.97
2019-03-31T15:07:04.742Z,12.43
2019-03-31T15:09:10.124Z,13.40
2019-03-31T15:11:15.742Z,23.00
2019-03-31T15:13:20.839Z,14.17
2019-03-31T15:15:25.829Z,8.63
2019-03-31T15:17:32.902Z,8.47
2019-03-31T15:19:37.927Z,9.73
2019-03-31T15:21:44.404Z,12.07
2019-03-31T15:23:49.777Z,10.10
2019-03-31T15:25:54.796Z,10.27
2019-03-31T15:27:59.997Z,8.47
2019-03-31T15:30:07.510Z,11.43
2019-03-31T15:32:13.836Z,11.57
2019-03-31T15:34:19.047Z,8.97
2019-03-31T15:36:23.998Z,11.20
2019-03-31T15:38:28.949Z,11.00
2019-03-31T15:40:34.288Z,9.70
2019-03-31T15:42:39.425Z,9.40
2019-03-31T15:44:47.259Z,14.00
2019-03-31T15:46:52.369Z,8.13
2019-03-31T15:49:02.059Z,11.33
2019-03-31T15:51:09.308Z,11.43
2019-03-31T15:53:14.330Z,10.60
2019-03-31T15:55:19.253Z,8.77
2019-03-31T15:57:24.197Z,13.53
2019-03-31T15:59:30.276Z,8.37
2019-03-31T16:01:35.310Z,9.13
2019-03-31T16:03:40.307Z,9.80
2019-03-31T16:05:46.247Z,8.53
2019-03-31T16:07:51.077Z,7.87
2019-03-31T16:09:56.327Z,7.50
2019-03-31T16:12:00.948Z,6.03
2019-03-31T16:14:05.701Z,6.40
2019-03-31T16:16:13.909Z,8.37
2019-03-31T16:18:17.125Z,7.47
2019-03-31T16:20:21.580Z,8.40
2019-03-31T16:22:26.013Z,7.60
2019-03-31T16:24:39.276Z,11.30
2019-03-31T16:26:44.022Z,5.33
2019-03-31T16:28:48.507Z,5.97
2019-03-31T16:30:53.008Z,5.87
2019-03-31T16:32:57.516Z,8.33
2019-03-31T16:35:02.389Z,4.30
2019-03-31T16:37:06.787Z,4.80
2019-03-31T16:39:11.263Z,4.30
2019-03-31T16:41:16.053Z,4.30
2019-03-31T16:43:20.462Z,4.27
2019-03-31T16:45:24.897Z,5.93
2019-03-31T16:47:30.093Z,17.53
2019-03-31T16:49:34.563Z,3.83
2019-03-31T16:51:40.052Z,6.90
2019-03-31T16:53:44.481Z,7.40
2019-03-31T16:55:48.959Z,23.20
2019-03-31T16:57:54.793Z,12.23
2019-03-31T17:00:01.450Z,10.13
2019-03-31T17:02:06.390Z,18.43
2019-03-31T17:04:13.239Z,15.70
2019-03-31T17:06:17.656Z,5.83
2019-03-31T17:08:22.479Z,15.20
2019-03-31T17:10:27.868Z,7.20
2019-03-31T17:12:32.377Z,9.47
2019-03-31T17:14:40.142Z,9.17
2019-03-31T17:16:44.654Z,6.00
2019-03-31T17:18:50.465Z,9.37
2019-03-31T17:20:56.932Z,5.33
2019-03-31T17:23:01.746Z,7.33
2019-03-31T17:25:06.346Z,9.97
2019-03-31T17:27:13.981Z,8.40
2019-03-31T17:29:29.678Z,8.07
2019-03-31T17:31:36.013Z,10.53
2019-03-31T17:33:40.663Z,8.87
2019-03-31T17:35:48.596Z,8.57
2019-03-31T17:37:53.688Z,6.90
2019-03-31T17:40:05.986Z,11.53
2019-03-31T17:42:04.854Z,10.57
2019-03-31T17:44:31.430Z,5.63
2019-03-31T17:46:36.027Z,9.87
2019-03-31T17:48:40.945Z,7.40
2019-03-31T17:50:45.396Z,6.40
2019-03-31T17:52:50.932Z,10.33
2019-03-31T17:54:58.766Z,7.33
2019-03-31T17:57:09.027Z,11.57
2019-03-31T17:59:13.675Z,7.40
2019-03-31T18:01:21.982Z,7.27
2019-03-31T18:03:26.857Z,10.80
2019-03-31T18:05:31.537Z,4.70
2019-03-31T18:07:36.148Z,9.40
2019-03-31T18:09:40.608Z,6.37
2019-03-31T18:11:45.392Z,8.40
2019-03-31T18:13:49.951Z,9.27
2019-03-31T18:15:54.309Z,5.03
2019-03-31T18:17:58.713Z,9.93
2019-03-31T18:20:03.091Z,6.80
2019-03-31T18:22:16.447Z,9.10
2019-03-31T18:24:14.413Z,7.20
2019-03-31T18:26:18.931Z,7.70
2019-03-31T18:28:23.344Z,6.57
2019-03-31T18:30:27.772Z,7.70
2019-03-31T18:32:32.168Z,12.10
2019-03-31T18:34:36.539Z,9.10
2019-03-31T18:36:40.966Z,5.80
2019-03-31T18:38:47.521Z,6.17
2019-03-31T18:40:53.536Z,5.77
2019-03-31T18:42:57.962Z,8.47
2019-03-31T18:45:02.868Z,5.80
2019-03-31T18:47:07.696Z,7.70
2019-03-31T18:49:12.665Z,8.43
2019-03-31T18:51:17.946Z,10.37
2019-03-31T18:53:38.498Z,6.80
2019-03-31T18:56:01.945Z,4.60
2019-03-31T18:58:18.006Z,6.40
2019-03-31T19:00:50.720Z,3.33
2019-03-31T19:03:14.172Z,12.90
2019-03-31T19:05:37.972Z,9.83
2019-03-31T19:08:00.173Z,8.03
2019-03-31T19:10:49.238Z,5.63
2019-03-31T19:13:18.167Z,5.70
2019-03-31T19:15:40.388Z,6.93
2019-03-31T19:18:13.691Z,5.73
2019-03-31T19:20:33.135Z,11.90
2019-03-31T19:23:03.013Z,9.50
2019-03-31T19:25:29.930Z,9.40
2019-03-31T19:27:57.523Z,4.50
2019-03-31T19:30:11.075Z,10.40
2019-03-31T19:32:23.983Z,3.50
2019-03-31T19:35:03.245Z,11.60
2019-03-31T19:37:36.298Z,4.00
2019-03-31T19:40:19.680Z,13.60
2019-03-31T19:42:40.228Z,12.60
2019-03-31T19:45:04.660Z,3.10
2019-03-31T19:47:23.632Z,5.83
2019-03-31T19:49:59.592Z,4.00
2019-03-31T19:52:22.427Z,4.97
2019-03-31T19:54:57.139Z,14.23
2019-03-31T19:57:42.025Z,6.07
2019-03-31T20:00:25.269Z,4.27
2019-03-31T20:02:48.852Z,4.03
2019-03-31T20:05:12.134Z,6.70
2019-03-31T20:07:33.567Z,7.57
2019-03-31T20:09:58.326Z,11.73
2019-03-31T20:15:15.768Z,7.33
2019-03-31T20:20:31.857Z,8.43
2019-03-31T20:23:04.312Z,7.57
2019-03-31T20:32:30.063Z,7.80
2019-03-31T20:35:40.481Z,4.53
2019-03-31T20:40:41.231Z,21.10
2019-03-31T20:43:03.201Z,8.73
2019-03-31T20:45:09.108Z,6.47
2019-03-31T20:47:16.575Z,7.50
2019-03-31T20:49:22.993Z,14.63
2019-03-31T20:51:27.784Z,8.00
2019-03-31T20:53:32.565Z,10.37
2019-03-31T20:55:38.022Z,7.50
2019-03-31T20:57:42.541Z,8.77
2019-03-31T20:59:53.612Z,17.00
2019-03-31T21:01:58.513Z,3.20
2019-03-31T21:04:03.079Z,13.13
2019-03-31T21:06:07.688Z,7.30
2019-03-31T21:08:12.475Z,3.20
2019-03-31T21:10:17.371Z,4.90
2019-03-31T21:12:22.047Z,14.43
2019-03-31T21:14:29.064Z,8.50
2019-03-31T21:16:33.847Z,11.03
2019-03-31T21:18:38.375Z,3.60
2019-03-31T21:20:44.473Z,11.27
2019-03-31T21:22:49.249Z,6.77
2019-03-31T21:24:54.803Z,5.00
2019-03-31T21:26:59.428Z,12.17
2019-03-31T21:29:04.243Z,5.97
2019-03-31T21:31:09.044Z,8.00
2019-03-31T21:33:15.873Z,8.80
2019-03-31T21:35:21.443Z,6.80
2019-03-31T21:37:26.333Z,3.53
2019-03-31T21:39:30.849Z,5.77
2019-03-31T21:41:35.660Z,3.93
2019-03-31T21:43:41.177Z,13.17
2019-03-31T21:45:47.221Z,10.17
2019-03-31T21:47:52.219Z,5.50
2019-03-31T21:49:57.225Z,6.77
2019-03-31T21:52:02.420Z,6.97
2019-03-31T21:54:07.006Z,6.20
2019-03-31T21:56:12.887Z,8.67
2019-03-31T21:58:17.378Z,2.13
2019-03-31T22:00:26.473Z,3.73
2019-03-31T22:02:31.252Z,6.73
2019-03-31T22:04:35.796Z,4.90
2019-03-31T22:06:40.679Z,2.87
2019-03-31T22:08:45.234Z,4.30
2019-03-31T22:10:49.834Z,7.20
2019-03-31T22:12:54.390Z,8.00
2019-03-31T22:14:59.053Z,4.63
2019-03-31T22:17:04.789Z,8.53
2019-03-31T22:19:11.481Z,7.07
2019-03-31T22:21:16.215Z,5.43
2019-03-31T22:23:20.872Z,3.47
2019-03-31T22:25:26.854Z,10.50
2019-03-31T22:27:32.296Z,4.87
2019-03-31T22:29:36.833Z,4.77
2019-03-31T22:31:41.759Z,7.13
2019-03-31T22:33:46.249Z,3.70
2019-03-31T22:36:08.049Z,6.67
2019-03-31T22:38:12.474Z,7.57
2019-03-31T22:40:17.049Z,5.77
2019-03-31T22:42:21.497Z,10.47
2019-03-31T22:44:26.048Z,7.77
2019-03-31T22:46:30.996Z,3.83
2019-03-31T22:48:36.532Z,7.57
2019-03-31T22:50:41.335Z,5.03
2019-03-31T22:52:45.915Z,8.43
2019-03-31T22:54:50.462Z,4.83
2019-03-31T22:56:55.264Z,9.97
2019-03-31T22:58:59.799Z,8.20
2019-03-31T23:01:04.645Z,2.60
2019-03-31T23:03:09.051Z,9.13
2019-03-31T23:05:14.209Z,3.47
2019-03-31T23:07:19.435Z,10.93
2019-03-31T23:09:24.232Z,9.50
2019-03-31T23:11:28.696Z,3.23
2019-03-31T23:13:33.504Z,11.63
2019-03-31T23:15:37.974Z,4.43
2019-03-31T23:17:42.897Z,7.50
2019-03-31T23:19:47.500Z,7.07
2019-03-31T23:21:52.693Z,4.70
2019-03-31T23:23:57.288Z,6.67
2019-03-31T23:26:02.609Z,5.07
2019-03-31T23:28:07.179Z,10.50
2019-03-31T23:30:12.142Z,8.00
2019-03-31T23:32:16.945Z,6.90
2019-03-31T23:34:21.649Z,5.93
2019-03-31T23:36:27.466Z,8.43
2019-03-31T23:38:32.573Z,2.70
2019-03-31T23:40:37.081Z,8.07
2019-03-31T23:42:41.600Z,3.43
2019-03-31T23:44:46.168Z,7.03
2019-03-31T23:46:51.150Z,13.73
2019-03-31T23:48:55.707Z,3.73
2019-03-31T23:51:03.164Z,18.63
2019-03-31T23:53:07.593Z,6.90
2019-03-31T23:55:12.128Z,4.13
2019-03-31T23:57:24.656Z,5.93
2019-03-31T23:59:29.044Z,2.97
